sensor_id;sensor_type;location;lat;lon;timestamp;temperature;humidity
80395;HTU21D;71133;31.962;118.754;2023-07-13T00:00:08;32.60;59.28
80395;HTU21D;71133;31.962;118.754;2023-07-13T00:02:35;32.60;58.99
80395;HTU21D;71133;31.962;118.754;2023-07-13T00:05:02;32.60;58.86
80395;HTU21D;71133;31.962;118.754;2023-07-13T00:07:29;32.62;58.65
80395;HTU21D;71133;31.962;118.754;2023-07-13T00:09:57;32.62;58.83
80395;HTU21D;71133;31.962;118.754;2023-07-13T00:12:35;32.62;58.45
80395;HTU21D;71133;31.962;118.754;2023-07-13T00:15:09;32.62;58.35
80395;HTU21D;71133;31.962;118.754;2023-07-13T00:17:37;32.62;58.17
80395;HTU21D;71133;31.962;118.754;2023-07-13T00:20:05;32.64;58.22
80395;HTU21D;71133;31.962;118.754;2023-07-13T00:22:33;32.62;58.16
80395;HTU21D;71133;31.962;118.754;2023-07-13T00:24:59;32.63;58.30
80395;HTU21D;71133;31.962;118.754;2023-07-13T00:27:26;32.66;58.44
80395;HTU21D;71133;31.962;118.754;2023-07-13T00:29:52;32.67;58.07
80395;HTU21D;71133;31.962;118.754;2023-07-13T00:32:19;32.64;57.94
80395;HTU21D;71133;31.962;118.754;2023-07-13T00:34:45;32.64;58.22
80395;HTU21D;71133;31.962;118.754;2023-07-13T00:37:13;32.68;58.24
80395;HTU21D;71133;31.962;118.754;2023-07-13T00:39:40;32.68;58.28
80395;HTU21D;71133;31.962;118.754;2023-07-13T00:42:07;32.67;58.34
80395;HTU21D;71133;31.962;118.754;2023-07-13T00:44:33;32.67;58.58
80395;HTU21D;71133;31.962;118.754;2023-07-13T00:47:00;32.68;59.03
80395;HTU21D;71133;31.962;118.754;2023-07-13T00:49:30;32.66;58.65
80395;HTU21D;71133;31.962;118.754;2023-07-13T00:52:07;32.66;58.69
80395;HTU21D;71133;31.962;118.754;2023-07-13T00:54:40;32.64;59.03
80395;HTU21D;71133;31.962;118.754;2023-07-13T00:57:12;32.64;59.32
80395;HTU21D;71133;31.962;118.754;2023-07-13T00:59:43;32.62;59.54
80395;HTU21D;71133;31.962;118.754;2023-07-13T01:02:11;32.63;59.70
80395;HTU21D;71133;31.962;118.754;2023-07-13T01:04:38;32.63;59.83
80395;HTU21D;71133;31.962;118.754;2023-07-13T01:07:06;32.64;59.95
80395;HTU21D;71133;31.962;118.754;2023-07-13T01:09:33;32.64;60.22
80395;HTU21D;71133;31.962;118.754;2023-07-13T01:12:00;32.66;60.30
80395;HTU21D;71133;31.962;118.754;2023-07-13T01:14:27;32.67;60.44
80395;HTU21D;71133;31.962;118.754;2023-07-13T01:16:53;32.63;60.29
80395;HTU21D;71133;31.962;118.754;2023-07-13T01:21:52;32.68;60.72
80395;HTU21D;71133;31.962;118.754;2023-07-13T02:46:27;30.28;52.42
80395;HTU21D;71133;31.962;118.754;2023-07-13T02:48:55;30.04;58.16
80395;HTU21D;71133;31.962;118.754;2023-07-13T02:51:22;30.18;52.00
80395;HTU21D;71133;31.962;118.754;2023-07-13T02:53:48;30.12;50.47
80395;HTU21D;71133;31.962;118.754;2023-07-13T02:56:16;29.95;55.38
80395;HTU21D;71133;31.962;118.754;2023-07-13T02:58:42;29.68;53.90
80395;HTU21D;71133;31.962;118.754;2023-07-13T03:01:11;29.57;52.98
80395;HTU21D;71133;31.962;118.754;2023-07-13T03:03:38;29.48;52.21
80395;HTU21D;71133;31.962;118.754;2023-07-13T03:06:06;29.39;51.04
80395;HTU21D;71133;31.962;118.754;2023-07-13T03:08:34;29.28;51.37
80395;HTU21D;71133;31.962;118.754;2023-07-13T03:11:05;29.19;55.02
80395;HTU21D;71133;31.962;118.754;2023-07-13T03:13:33;29.15;57.93
80395;HTU21D;71133;31.962;118.754;2023-07-13T03:16:01;29.14;59.70
80395;HTU21D;71133;31.962;118.754;2023-07-13T03:18:28;29.08;59.31
80395;HTU21D;71133;31.962;118.754;2023-07-13T03:23:28;28.59;62.85
80395;HTU21D;71133;31.962;118.754;2023-07-13T03:28:29;28.35;63.19
80395;HTU21D;71133;31.962;118.754;2023-07-13T03:31:09;28.28;61.57
80395;HTU21D;71133;31.962;118.754;2023-07-13T03:33:38;28.21;59.72
80395;HTU21D;71133;31.962;118.754;2023-07-13T03:36:06;28.71;57.97
80395;HTU21D;71133;31.962;118.754;2023-07-13T03:38:34;29.65;55.55
80395;HTU21D;71133;31.962;118.754;2023-07-13T03:41:01;29.79;54.87
80395;HTU21D;71133;31.962;118.754;2023-07-13T03:43:28;29.63;53.51
80395;HTU21D;71133;31.962;118.754;2023-07-13T03:45:56;29.47;54.41
80395;HTU21D;71133;31.962;118.754;2023-07-13T03:48:23;29.33;53.20
80395;HTU21D;71133;31.962;118.754;2023-07-13T03:50:50;29.24;54.06
80395;HTU21D;71133;31.962;118.754;2023-07-13T03:53:17;29.17;55.46
80395;HTU21D;71133;31.962;118.754;2023-07-13T03:55:45;29.07;54.28
80395;HTU21D;71133;31.962;118.754;2023-07-13T03:58:34;28.99;55.99
80395;HTU21D;71133;31.962;118.754;2023-07-13T04:01:03;28.89;55.20
80395;HTU21D;71133;31.962;118.754;2023-07-13T04:03:32;28.80;62.11
80395;HTU21D;71133;31.962;118.754;2023-07-13T04:06:01;28.82;63.86
80395;HTU21D;71133;31.962;118.754;2023-07-13T04:08:30;28.86;63.78
80395;HTU21D;71133;31.962;118.754;2023-07-13T04:10:58;28.89;63.50
